createdAt,value
2023-04-20T00:05:27.031Z,101614.16
2023-04-20T00:12:28.802Z,101607.63
2023-04-20T00:19:33.120Z,101598.50
2023-04-20T00:26:34.696Z,101602.94
2023-04-20T00:33:36.389Z,101599.97
2023-04-20T00:40:37.974Z,101596.97
2023-04-20T00:47:39.614Z,101588.31
2023-04-20T00:54:41.206Z,101575.75
2023-04-20T01:01:43.869Z,101580.09
2023-04-20T01:08:49.593Z,101584.56
2023-04-20T01:15:51.244Z,101587.22
2023-04-20T01:22:54.467Z,101579.88
2023-04-20T01:29:56.244Z,101588.94
2023-04-20T01:36:57.946Z,101585.72
2023-04-20T01:43:59.577Z,101565.50
2023-04-20T01:51:01.204Z,101567.78
2023-04-20T01:58:02.770Z,101558.34
2023-04-20T02:14:03.809Z,101571.69
2023-04-20T02:21:06.137Z,101575.50
2023-04-20T02:28:07.892Z,101573.44
2023-04-20T02:35:09.923Z,101567.66
2023-04-20T02:42:11.610Z,101570.06
2023-04-20T02:49:15.517Z,101571.50
2023-04-20T02:56:19.386Z,101572.88
2023-04-20T03:03:28.071Z,101578.03
2023-04-20T03:10:31.190Z,101569.38
2023-04-20T03:17:39.835Z,101574.25
2023-04-20T03:24:41.740Z,101575.50
2023-04-20T03:32:15.608Z,101582.94
2023-04-20T03:39:17.864Z,101585.75
2023-04-20T03:46:22.043Z,101585.63
2023-04-20T03:53:24.972Z,101584.25
2023-04-20T04:00:27.655Z,101584.84
2023-04-20T04:07:38.958Z,101583.00
2023-04-20T04:14:40.940Z,101589.06
2023-04-20T04:21:44.052Z,101590.06
2023-04-20T04:28:47.088Z,101608.38
2023-04-20T04:35:53.615Z,101602.53
2023-04-20T04:42:55.807Z,101608.13
2023-04-20T04:49:59.744Z,101619.06
2023-04-20T04:57:03.790Z,101622.53
2023-04-20T05:04:05.617Z,101625.06
2023-04-20T05:11:07.348Z,101614.50
2023-04-20T05:18:09.118Z,101623.41
2023-04-20T05:25:13.808Z,101626.91
2023-04-20T05:32:15.618Z,101619.91
2023-04-20T05:39:17.671Z,101624.78
2023-04-20T05:46:19.590Z,101637.19
2023-04-20T05:53:22.078Z,101647.78
2023-04-20T06:00:26.034Z,101650.66
2023-04-20T06:07:27.887Z,101636.56
2023-04-20T06:14:29.569Z,101654.47
2023-04-20T06:21:31.704Z,101662.88
2023-04-20T06:28:33.447Z,101678.16
2023-04-20T06:35:35.154Z,101671.56
2023-04-20T06:42:37.362Z,101661.25
2023-04-20T06:49:39.483Z,101663.97
2023-04-20T06:56:41.095Z,101670.81
2023-04-20T07:03:43.552Z,101661.84
2023-04-20T07:10:45.235Z,101655.38
2023-04-20T07:17:46.855Z,101675.69
2023-04-20T07:24:48.530Z,101677.78
2023-04-20T07:31:50.247Z,101685.75
2023-04-20T07:38:51.892Z,101686.00
2023-04-20T07:45:53.551Z,101682.31
2023-04-20T07:52:55.189Z,101699.44
2023-04-20T07:59:56.845Z,101701.00
2023-04-20T08:06:58.532Z,101708.56
2023-04-20T08:14:00.368Z,101701.50
2023-04-20T08:21:02.059Z,101693.19
2023-04-20T08:28:04.228Z,101697.03
2023-04-20T08:35:08.821Z,101708.94
2023-04-20T08:42:10.684Z,101717.69
2023-04-20T08:49:12.600Z,101719.84
2023-04-20T08:56:14.207Z,101727.09
2023-04-20T09:03:16.126Z,101726.69
2023-04-20T09:10:17.912Z,101718.69
2023-04-20T09:17:33.861Z,101719.28
2023-04-20T09:24:37.105Z,101724.03
2023-04-20T09:31:38.815Z,101713.84
2023-04-20T09:38:40.567Z,101716.00
2023-04-20T09:45:42.214Z,101699.81
2023-04-20T09:52:44.179Z,101706.66
2023-04-20T09:59:46.574Z,101694.53
2023-04-20T10:06:55.588Z,101687.53
2023-04-20T10:13:57.990Z,101676.47
2023-04-20T10:21:11.439Z,101673.13
2023-04-20T10:28:13.147Z,101664.19
2023-04-20T10:35:16.190Z,101646.22
2023-04-20T10:42:18.290Z,101639.38
2023-04-20T10:49:20.219Z,101640.66
2023-04-20T10:56:21.919Z,101627.47
2023-04-20T11:03:23.621Z,101630.53
2023-04-20T11:10:46.431Z,101641.34
2023-04-20T11:17:48.121Z,101627.38
2023-04-20T11:24:50.245Z,101617.94
2023-04-20T11:31:52.106Z,101630.00
2023-04-20T11:38:53.947Z,101613.84
2023-04-20T11:45:55.653Z,101608.06
2023-04-20T11:52:57.239Z,101606.34
2023-04-20T11:59:58.887Z,101595.25
2023-04-20T12:07:02.084Z,101588.28
2023-04-20T12:14:04.867Z,101579.06
2023-04-20T12:21:06.569Z,101584.00
2023-04-20T12:28:08.298Z,101578.13
2023-04-20T12:35:10.250Z,101569.63
2023-04-20T12:42:11.913Z,101559.13
2023-04-20T12:49:13.488Z,101548.00
2023-04-20T12:56:15.299Z,101541.59
2023-04-20T13:03:17.082Z,101539.91
2023-04-20T13:10:23.538Z,101525.34
2023-04-20T13:17:28.354Z,101528.06
2023-04-20T13:24:30.131Z,101522.69
2023-04-20T13:31:33.333Z,101509.22
2023-04-20T13:38:34.954Z,101514.94
2023-04-20T13:45:36.851Z,101513.09
2023-04-20T13:52:39.587Z,101508.13
2023-04-20T13:59:41.233Z,101496.00
2023-04-20T14:06:43.044Z,101494.50
2023-04-20T14:13:44.829Z,101486.28
2023-04-20T14:20:46.596Z,101472.84
2023-04-20T14:27:48.114Z,101467.28
2023-04-20T14:34:49.666Z,101460.47
2023-04-20T14:41:51.290Z,101453.38
2023-04-20T14:48:52.928Z,101448.34
2023-04-20T14:55:54.857Z,101449.03
2023-04-20T15:02:56.834Z,101446.50
2023-04-20T15:09:58.529Z,101442.56
2023-04-20T15:17:00.093Z,101452.91
2023-04-20T15:24:01.727Z,101448.28
2023-04-20T15:31:03.298Z,101445.19
2023-04-20T15:38:05.006Z,101437.25
2023-04-20T15:45:07.129Z,101434.72
2023-04-20T15:52:08.702Z,101442.06
2023-04-20T15:59:10.236Z,101434.75
2023-04-20T16:06:12.355Z,101436.44
2023-04-20T16:13:13.879Z,101430.78
2023-04-20T16:20:15.435Z,101420.13
2023-04-20T16:27:17.235Z,101431.97
2023-04-20T16:34:19.661Z,101428.72
2023-04-20T16:41:21.821Z,101434.84
2023-04-20T16:48:23.456Z,101432.47
2023-04-20T16:55:26.057Z,101436.41
2023-04-20T17:02:32.795Z,101439.84
2023-04-20T17:09:34.684Z,101450.94
2023-04-20T17:16:36.289Z,101441.31
2023-04-20T17:23:37.883Z,101453.78
2023-04-20T17:30:40.859Z,101451.22
2023-04-20T17:37:42.600Z,101457.50
2023-04-20T17:44:44.133Z,101453.31
2023-04-20T17:51:45.765Z,101455.47
2023-04-20T17:58:48.231Z,101460.09
2023-04-20T18:05:49.810Z,101466.38
2023-04-20T18:12:51.875Z,101471.66
2023-04-20T18:19:53.818Z,101479.59
2023-04-20T18:26:55.349Z,101481.34
2023-04-20T18:33:57.020Z,101481.31
2023-04-20T18:40:59.745Z,101492.44
2023-04-20T18:48:01.440Z,101493.94
2023-04-20T18:55:03.925Z,101489.53
2023-04-20T19:02:05.875Z,101492.41
2023-04-20T19:09:08.312Z,101500.44
2023-04-20T19:16:11.140Z,101494.34
2023-04-20T19:23:12.725Z,101491.53
2023-04-20T19:30:14.359Z,101497.03
2023-04-20T19:37:15.979Z,101497.69
2023-04-20T19:44:17.671Z,101486.75
2023-04-20T19:51:19.418Z,101498.09
2023-04-20T19:58:21.004Z,101492.97
2023-04-20T20:05:22.661Z,101499.25
2023-04-20T20:12:24.194Z,101495.81
2023-04-20T20:19:25.852Z,101498.88
2023-04-20T20:26:27.457Z,101505.78
2023-04-20T20:33:28.983Z,101504.34
2023-04-20T20:40:31.195Z,101510.88
2023-04-20T20:47:33.564Z,101506.97
2023-04-20T20:54:35.225Z,101503.88
2023-04-20T21:01:36.961Z,101498.75
2023-04-20T21:08:38.979Z,101506.47
2023-04-20T21:15:40.875Z,101509.38
2023-04-20T21:22:42.472Z,101505.25
2023-04-20T21:29:44.028Z,101501.09
2023-04-20T21:36:45.838Z,101506.72
2023-04-20T21:43:47.434Z,101505.34
2023-04-20T21:50:49.017Z,101504.19
2023-04-20T21:57:50.638Z,101506.91
2023-04-20T22:04:52.410Z,101510.22
2023-04-20T22:11:54.146Z,101517.03
2023-04-20T22:18:55.814Z,101515.22
2023-04-20T22:25:57.373Z,101513.50
2023-04-20T22:32:58.986Z,101522.34
2023-04-20T22:40:00.684Z,101515.03
2023-04-20T22:47:02.446Z,101522.25
2023-04-20T22:54:04.262Z,101523.81
2023-04-20T23:01:05.951Z,101524.59
2023-04-20T23:08:07.660Z,101536.50
2023-04-20T23:15:09.580Z,101531.88
2023-04-20T23:22:11.160Z,101536.19
2023-04-20T23:29:12.722Z,101533.38
2023-04-20T23:36:14.332Z,101528.72
2023-04-20T23:43:15.915Z,101531.69
2023-04-20T23:50:17.540Z,101540.03
2023-04-20T23:57:19.048Z,101529.56
